Time;durP1;ratioP1;P1;durP2;ratioP2;P2;SDS_P1;SDS_P2;PMS_P1;PMS_P2;Temp;Humidity;BMP_temperature;BMP_pressure;BME280_temperature;BME280_humidity;BME280_pressure;Samples;Min_cycle;Max_cycle;Signal;HPM_P1;HPM_P2
2021/11/20 00:01:26;;;;;;;33.80;15.20;;;10.20;99.90;;;;;;4996401;28;20037;-84
2021/11/20 00:03:52;;;;;;;30.73;15.70;;;10.20;99.90;;;;;;5009497;28;20553;-84
2021/11/20 00:06:28;;;;;;;32.65;16.35;;;10.20;99.90;;;;;;5004311;28;20470;-84
2021/11/20 00:08:54;;;;;;;29.25;15.48;;;10.20;99.90;;;;;;4999591;28;20145;-84
2021/11/20 00:11:23;;;;;;;27.60;15.57;;;10.20;99.90;;;;;;5002337;28;20081;-84
2021/11/20 00:13:49;;;;;;;29.80;14.82;;;10.30;99.90;;;;;;5001622;28;20100;-84
2021/11/20 00:16:17;;;;;;;27.45;14.48;;;10.30;99.90;;;;;;5007419;28;20029;-84
2021/11/20 00:18:44;;;;;;;29.33;15.45;;;10.30;99.90;;;;;;4982375;28;20489;-84
2021/11/20 00:21:17;;;;;;;29.58;14.07;;;10.30;99.90;;;;;;5010618;28;20038;-84
2021/11/20 00:23:48;;;;;;;28.27;15.45;;;10.30;99.90;;;;;;4989306;28;20037;-83
2021/11/20 00:26:17;;;;;;;25.85;14.80;;;10.30;99.90;;;;;;4998825;28;20038;-84
2021/11/20 00:31:42;;;;;;;27.38;15.23;;;10.30;99.90;;;;;;4983451;28;20053;-84
2021/11/20 00:34:13;;;;;;;29.02;15.43;;;10.30;99.90;;;;;;4999545;28;20034;-84
2021/11/20 00:36:39;;;;;;;28.00;14.88;;;10.30;99.90;;;;;;4984303;28;20046;-84
2021/11/20 00:39:07;;;;;;;26.27;14.45;;;10.30;99.90;;;;;;4998945;28;20557;-84
2021/11/20 00:41:33;;;;;;;27.85;14.48;;;10.40;99.90;;;;;;5004479;28;20313;-84
2021/11/20 00:43:59;;;;;;;26.48;13.88;;;10.30;99.90;;;;;;5007572;28;20090;-84
2021/11/20 00:46:28;;;;;;;27.98;14.43;;;10.30;99.90;;;;;;4985230;28;20320;-84
2021/11/20 00:48:54;;;;;;;25.75;14.13;;;10.40;99.90;;;;;;5006907;28;20381;-84
2021/11/20 00:51:24;;;;;;;21.88;13.60;;;10.40;99.90;;;;;;5005155;28;20087;-84
2021/11/20 00:53:50;;;;;;;30.85;15.48;;;10.40;99.90;;;;;;4997238;28;20044;-84
2021/11/20 00:56:18;;;;;;;24.58;14.40;;;10.40;99.90;;;;;;5010152;28;20034;-84
2021/11/20 00:58:44;;;;;;;25.90;13.88;;;10.30;99.90;;;;;;5007866;28;20041;-84
2021/11/20 01:01:14;;;;;;;23.55;14.05;;;10.40;99.90;;;;;;4982995;28;20037;-84
2021/11/20 01:03:40;;;;;;;28.15;14.50;;;10.40;99.90;;;;;;5006664;28;20041;-83
2021/11/20 01:06:06;;;;;;;25.02;14.10;;;10.40;99.90;;;;;;4993552;28;20048;-83
2021/11/20 01:08:35;;;;;;;26.20;14.48;;;10.30;99.90;;;;;;5004666;28;20589;-83
2021/11/20 01:11:06;;;;;;;24.90;14.05;;;10.40;99.90;;;;;;5004749;28;20045;-84
2021/11/20 01:13:33;;;;;;;26.30;14.52;;;10.40;99.90;;;;;;4979900;28;20037;-83
2021/11/20 01:16:01;;;;;;;26.63;14.82;;;10.40;99.90;;;;;;5010597;28;20049;-83
2021/11/20 01:18:28;;;;;;;24.08;14.18;;;10.40;99.90;;;;;;5006555;28;20057;-84
2021/11/20 01:20:54;;;;;;;21.98;14.43;;;10.30;99.90;;;;;;4989902;28;20042;-83
2021/11/20 01:23:23;;;;;;;21.85;14.07;;;10.30;99.90;;;;;;4985596;28;20042;-83
2021/11/20 01:25:49;;;;;;;25.58;14.00;;;10.40;99.90;;;;;;5006763;28;20042;-83
2021/11/20 01:28:16;;;;;;;21.42;13.60;;;10.40;99.90;;;;;;4997850;28;20350;-84
2021/11/20 01:30:42;;;;;;;24.50;14.05;;;10.30;99.90;;;;;;4998880;28;20518;-83
2021/11/20 01:33:08;;;;;;;22.65;13.63;;;10.30;99.90;;;;;;4998660;28;20037;-83
2021/11/20 01:35:34;;;;;;;24.15;13.95;;;10.30;99.90;;;;;;5000004;28;20033;-83
2021/11/20 01:38:00;;;;;;;22.23;12.65;;;10.30;99.90;;;;;;4982583;28;20045;-83
2021/11/20 01:40:30;;;;;;;25.50;13.77;;;10.30;99.90;;;;;;5002196;28;20030;-83
2021/11/20 01:42:56;;;;;;;20.58;13.02;;;10.30;99.90;;;;;;5000616;28;20100;-83
2021/11/20 01:45:33;;;;;;;22.23;13.52;;;10.30;99.90;;;;;;5011894;28;20495;-83
2021/11/20 01:48:37;;;;;;;22.45;12.35;;;10.30;99.90;;;;;;5005001;28;20108;-83
2021/11/20 01:51:08;;;;;;;24.13;12.77;;;10.20;99.90;;;;;;5027467;23;20046;-51
2021/11/20 01:53:44;;;;;;;27.80;12.82;;;10.20;99.90;;;;;;5022210;28;20159;-51
2021/11/20 01:56:18;;;;;;;17.42;12.32;;;10.10;99.90;;;;;;5027561;28;20030;-49
2021/11/20 01:59:03;;;;;;;26.02;13.80;;;10.10;99.90;;;;;;5023981;28;20496;-50
2021/11/20 02:01:44;;;;;;;20.90;13.05;;;10.10;99.90;;;;;;5015646;28;20493;-50
2021/11/20 02:04:23;;;;;;;24.63;12.45;;;10.10;99.90;;;;;;5008082;28;20498;-52
2021/11/20 02:07:16;;;;;;;22.73;13.18;;;10.10;99.90;;;;;;5011594;28;20087;-50
2021/11/20 02:09:53;;;;;;;23.65;12.55;;;10.10;99.90;;;;;;5009458;28;20041;-51
2021/11/20 02:12:24;;;;;;;22.52;12.88;;;10.10;99.90;;;;;;5011317;28;20532;-53
2021/11/20 02:14:51;;;;;;;21.05;12.77;;;10.10;99.90;;;;;;4999362;28;20042;-53
2021/11/20 02:17:48;;;;;;;24.10;13.50;;;10.10;99.90;;;;;;5006528;28;20049;-50
2021/11/20 02:20:40;;;;;;;21.25;13.05;;;10.10;99.90;;;;;;5008032;28;20042;-53
2021/11/20 02:23:06;;;;;;;26.60;13.63;;;10.10;99.90;;;;;;5012049;28;20052;-52
2021/11/20 02:25:31;;;;;;;17.88;12.93;;;10.10;99.90;;;;;;5009756;28;20049;-50
2021/11/20 02:27:58;;;;;;;25.60;13.90;;;10.00;99.90;;;;;;5013580;28;20098;-52
2021/11/20 02:30:29;;;;;;;20.40;14.00;;;10.00;99.90;;;;;;5004997;28;20080;-52
2021/11/20 02:33:08;;;;;;;21.95;13.15;;;10.00;99.90;;;;;;5007175;28;20066;-54
2021/11/20 02:35:41;;;;;;;23.17;13.70;;;10.00;99.90;;;;;;5002699;28;20048;-51
2021/11/20 02:38:11;;;;;;;20.90;12.45;;;10.00;99.90;;;;;;5008404;28;20085;-50
2021/11/20 02:40:37;;;;;;;20.73;13.57;;;10.00;99.90;;;;;;5004392;28;20030;-52
2021/11/20 02:43:04;;;;;;;21.33;13.60;;;9.90;99.90;;;;;;5008934;28;20033;-53
2021/11/20 02:45:39;;;;;;;22.77;14.23;;;9.90;99.90;;;;;;5010145;28;20498;-49
2021/11/20 02:48:06;;;;;;;27.63;14.52;;;10.00;99.90;;;;;;5006318;28;20444;-51
2021/11/20 02:50:39;;;;;;;23.73;14.32;;;10.00;99.90;;;;;;5010765;28;20040;-51
2021/11/20 02:53:07;;;;;;;24.70;14.82;;;10.00;99.90;;;;;;5007759;28;20037;-52
2021/11/20 02:55:33;;;;;;;24.35;13.93;;;10.00;99.90;;;;;;5005829;28;20498;-53
2021/11/20 02:57:59;;;;;;;20.60;15.00;;;10.00;99.90;;;;;;5012959;28;20065;-52
2021/11/20 03:00:26;;;;;;;23.33;15.68;;;10.00;99.90;;;;;;5013249;28;20038;-53
2021/11/20 03:02:52;;;;;;;26.73;15.25;;;10.00;99.90;;;;;;5006994;28;20502;-50
2021/11/20 03:05:19;;;;;;;22.00;14.68;;;10.00;99.90;;;;;;4997235;28;20076;-54
2021/11/20 03:07:44;;;;;;;21.95;14.63;;;10.00;99.90;;;;;;5007351;28;20038;-54
2021/11/20 03:10:11;;;;;;;26.58;15.40;;;10.10;99.90;;;;;;5012765;28;20041;-54
2021/11/20 03:12:37;;;;;;;24.60;15.27;;;10.10;99.90;;;;;;5012166;28;20038;-54
2021/11/20 03:15:05;;;;;;;19.75;14.55;;;10.10;99.90;;;;;;5009395;28;20753;-53
2021/11/20 03:17:32;;;;;;;26.05;15.50;;;10.10;99.90;;;;;;5012680;28;20064;-54
2021/11/20 03:19:58;;;;;;;18.48;14.88;;;10.10;99.90;;;;;;5008955;28;20049;-53
2021/11/20 03:22:32;;;;;;;21.98;15.50;;;10.20;99.90;;;;;;5009803;28;20070;-53
2021/11/20 03:24:57;;;;;;;26.25;16.63;;;10.20;99.90;;;;;;5012501;28;20048;-53
2021/11/20 03:27:23;;;;;;;22.02;15.20;;;10.20;99.90;;;;;;5004058;28;20410;-54
2021/11/20 03:29:50;;;;;;;24.80;15.10;;;10.20;99.90;;;;;;5004521;28;20048;-53
2021/11/20 03:32:16;;;;;;;23.63;15.55;;;10.20;99.90;;;;;;5012442;28;20064;-53
2021/11/20 03:34:42;;;;;;;24.63;16.50;;;10.20;99.90;;;;;;5003636;28;20080;-52
2021/11/20 03:37:10;;;;;;;23.50;15.90;;;10.30;99.90;;;;;;5009501;28;20037;-54
2021/11/20 03:39:37;;;;;;;25.40;15.40;;;10.30;99.90;;;;;;5005327;28;20069;-54
2021/11/20 03:42:04;;;;;;;25.70;16.83;;;10.30;99.90;;;;;;5008780;28;20053;-54
2021/11/20 03:44:31;;;;;;;24.90;16.33;;;10.30;99.90;;;;;;5010881;28;20029;-53
2021/11/20 03:46:57;;;;;;;23.85;16.52;;;10.30;99.90;;;;;;5004934;28;20452;-54
2021/11/20 03:49:22;;;;;;;29.13;17.10;;;10.30;99.90;;;;;;5005181;28;20074;-54
2021/11/20 03:51:48;;;;;;;28.00;17.17;;;10.40;99.90;;;;;;5001212;28;20101;-53
2021/11/20 03:54:14;;;;;;;25.42;16.58;;;10.40;99.90;;;;;;5007014;28;20412;-54
2021/11/20 03:56:40;;;;;;;25.60;16.95;;;10.40;99.90;;;;;;5005051;28;20038;-52
2021/11/20 03:59:07;;;;;;;25.85;16.90;;;10.40;99.90;;;;;;5008240;28;20034;-51
2021/11/20 04:01:32;;;;;;;26.40;16.75;;;10.40;99.90;;;;;;5010332;28;20038;-53
2021/11/20 04:03:58;;;;;;;24.90;17.42;;;10.40;99.90;;;;;;5004496;28;20022;-54
2021/11/20 04:06:24;;;;;;;30.52;17.70;;;10.40;99.90;;;;;;5005113;28;20044;-54
2021/11/20 04:08:51;;;;;;;25.08;17.40;;;10.40;99.90;;;;;;5002245;28;20038;-54
2021/11/20 04:11:21;;;;;;;26.63;17.13;;;10.40;99.90;;;;;;5000135;28;20038;-54
2021/11/20 04:13:47;;;;;;;26.05;18.27;;;10.50;99.90;;;;;;5003593;28;20042;-53
2021/11/20 04:16:14;;;;;;;30.40;18.00;;;10.50;99.90;;;;;;5009004;28;20049;-54
2021/11/20 04:18:42;;;;;;;31.92;17.60;;;10.50;99.90;;;;;;5002741;28;20070;-54
2021/11/20 04:21:08;;;;;;;28.98;17.58;;;10.50;99.90;;;;;;5001636;28;20034;-53
2021/11/20 04:23:34;;;;;;;27.88;18.20;;;10.50;99.90;;;;;;5005110;28;20404;-52
2021/11/20 04:25:59;;;;;;;26.42;18.08;;;10.50;99.90;;;;;;5005023;28;20041;-53
2021/11/20 04:28:25;;;;;;;33.53;19.45;;;10.50;99.90;;;;;;5007789;28;20041;-50
2021/11/20 04:30:51;;;;;;;31.48;18.52;;;10.50;99.90;;;;;;5008736;28;20033;-50
2021/11/20 04:33:17;;;;;;;32.10;19.27;;;10.50;99.90;;;;;;5004145;28;20046;-50
2021/11/20 04:35:44;;;;;;;30.65;18.83;;;10.50;99.90;;;;;;5010238;28;20050;-50
2021/11/20 04:38:11;;;;;;;28.15;19.67;;;10.50;99.90;;;;;;5004268;28;20507;-52
2021/11/20 04:40:37;;;;;;;29.90;19.40;;;10.50;99.90;;;;;;4999422;28;20038;-50
2021/11/20 04:43:04;;;;;;;31.98;19.92;;;10.60;99.90;;;;;;5002249;28;20053;-51
2021/11/20 04:45:33;;;;;;;34.10;20.80;;;10.50;99.90;;;;;;5009235;28;20092;-50
2021/11/20 04:48:03;;;;;;;33.10;20.65;;;10.50;99.90;;;;;;5004126;28;20037;-50
2021/11/20 04:50:29;;;;;;;34.67;21.25;;;10.50;99.90;;;;;;5004731;28;20042;-52
2021/11/20 04:52:55;;;;;;;31.08;20.35;;;10.50;99.90;;;;;;5001261;28;20505;-50
2021/11/20 04:55:20;;;;;;;33.88;20.75;;;10.50;99.90;;;;;;5009701;28;20120;-50
2021/11/20 04:57:46;;;;;;;34.15;21.52;;;10.50;99.90;;;;;;4997340;28;20069;-53
2021/11/20 05:00:16;;;;;;;36.33;21.98;;;10.50;99.90;;;;;;5005564;28;20194;-50
2021/11/20 05:02:41;;;;;;;36.03;21.63;;;10.60;99.90;;;;;;5003775;28;20417;-50
2021/11/20 05:05:07;;;;;;;34.97;21.92;;;10.50;99.90;;;;;;5003105;28;20048;-50
2021/11/20 05:07:33;;;;;;;32.05;21.23;;;10.60;99.90;;;;;;5001047;28;20030;-50
2021/11/20 05:09:59;;;;;;;35.35;23.35;;;10.60;99.90;;;;;;5006299;28;20149;-52
2021/11/20 05:12:25;;;;;;;33.03;21.70;;;10.60;99.90;;;;;;5010603;28;20088;-50
2021/11/20 05:14:51;;;;;;;38.35;23.45;;;10.60;99.90;;;;;;5009946;28;20496;-52
2021/11/20 05:17:17;;;;;;;35.55;23.17;;;10.60;99.90;;;;;;5009657;28;20034;-51
2021/11/20 05:19:42;;;;;;;34.53;23.17;;;10.60;99.90;;;;;;5006889;28;20089;-49
2021/11/20 05:22:08;;;;;;;38.10;22.05;;;10.60;99.90;;;;;;5007980;28;20038;-49
2021/11/20 05:24:33;;;;;;;39.67;24.35;;;10.60;99.90;;;;;;5013465;28;20088;-49
2021/11/20 05:27:01;;;;;;;35.33;23.20;;;10.50;99.90;;;;;;5002484;28;20037;-50
2021/11/20 05:31:55;;;;;;;38.50;23.67;;;10.60;99.90;;;;;;5009097;28;20045;-49
2021/11/20 05:34:22;;;;;;;34.75;23.02;;;10.60;99.90;;;;;;5009184;28;20404;-50
2021/11/20 05:36:48;;;;;;;36.00;24.17;;;10.60;99.90;;;;;;5013287;28;20034;-50
2021/11/20 05:39:14;;;;;;;37.50;23.35;;;10.60;99.90;;;;;;5013847;28;20030;-49
2021/11/20 05:41:40;;;;;;;34.85;23.45;;;10.60;99.90;;;;;;4998223;28;20089;-50
2021/11/20 05:44:08;;;;;;;40.55;24.33;;;10.60;99.90;;;;;;5013634;28;20084;-50
2021/11/20 05:46:34;;;;;;;36.25;23.90;;;10.50;99.90;;;;;;5003397;28;20624;-51
2021/11/20 05:49:00;;;;;;;34.97;24.08;;;10.60;99.90;;;;;;5003215;28;20099;-50
2021/11/20 05:51:26;;;;;;;34.08;23.92;;;10.60;99.90;;;;;;5007986;28;20401;-54
2021/11/20 05:53:52;;;;;;;33.50;23.23;;;10.60;99.90;;;;;;5013033;28;20056;-50
2021/11/20 05:56:18;;;;;;;34.05;23.98;;;10.60;99.90;;;;;;5000931;28;20357;-50
2021/11/20 05:58:43;;;;;;;35.70;23.70;;;10.60;99.90;;;;;;5008844;28;20434;-49
2021/11/20 06:01:12;;;;;;;37.05;25.40;;;10.50;99.90;;;;;;5004289;28;20040;-49
2021/11/20 06:03:38;;;;;;;40.13;24.48;;;10.50;99.90;;;;;;5005501;28;20030;-49
2021/11/20 06:06:05;;;;;;;35.75;24.33;;;10.60;99.90;;;;;;5012540;28;20117;-51
2021/11/20 06:08:31;;;;;;;38.70;24.63;;;10.50;99.90;;;;;;5009354;28;20446;-51
2021/11/20 06:10:59;;;;;;;39.30;23.98;;;10.60;99.90;;;;;;5007005;28;20080;-50
2021/11/20 06:13:26;;;;;;;40.05;24.48;;;10.50;99.90;;;;;;5010091;28;20456;-51
2021/11/20 06:15:53;;;;;;;38.15;25.27;;;10.60;99.90;;;;;;5010565;28;20108;-51
2021/11/20 06:18:19;;;;;;;38.35;24.70;;;10.60;99.90;;;;;;5008172;28;20053;-52
2021/11/20 06:20:47;;;;;;;33.78;24.10;;;10.60;99.90;;;;;;5010538;28;20506;-50
2021/11/20 06:23:12;;;;;;;36.13;24.65;;;10.50;99.90;;;;;;5013031;28;20057;-52
2021/11/20 06:25:39;;;;;;;38.35;23.95;;;10.60;99.90;;;;;;5010277;28;20034;-50
2021/11/20 06:28:05;;;;;;;39.55;24.17;;;10.50;99.90;;;;;;5011401;28;20046;-50
2021/11/20 06:30:32;;;;;;;34.55;22.67;;;10.50;99.90;;;;;;5011357;28;20038;-51
2021/11/20 06:32:59;;;;;;;39.30;24.23;;;10.50;99.90;;;;;;5010233;28;20066;-54
2021/11/20 06:35:27;;;;;;;35.95;24.48;;;10.50;99.90;;;;;;5012375;28;20053;-53
2021/11/20 06:37:54;;;;;;;37.15;25.52;;;10.50;99.90;;;;;;5009295;28;20490;-54
2021/11/20 06:40:33;;;;;;;36.25;24.88;;;10.50;99.90;;;;;;5009536;28;20033;-51
2021/11/20 06:42:59;;;;;;;37.88;24.45;;;10.50;99.90;;;;;;5009872;28;20044;-52
2021/11/20 06:45:28;;;;;;;36.75;23.35;;;10.50;99.90;;;;;;5007323;28;20241;-50
2021/11/20 06:47:55;;;;;;;33.90;23.42;;;10.50;99.90;;;;;;5009456;28;20030;-50
2021/11/20 06:50:22;;;;;;;37.25;24.27;;;10.50;99.90;;;;;;5010994;28;20034;-49
2021/11/20 06:52:49;;;;;;;34.25;23.30;;;10.50;99.90;;;;;;5003687;28;20080;-50
2021/11/20 06:55:16;;;;;;;36.85;24.15;;;10.50;99.90;;;;;;5007185;28;20050;-49
2021/11/20 07:00:36;;;;;;;33.90;23.60;;;10.50;99.90;;;;;;5009484;28;20052;-51
2021/11/20 07:03:19;;;;;;;36.25;24.63;;;10.50;99.90;;;;;;5005432;28;20045;-53
2021/11/20 07:05:48;;;;;;;36.80;24.02;;;10.50;99.90;;;;;;5004015;28;20125;-50
2021/11/20 07:08:15;;;;;;;35.78;22.83;;;10.50;99.90;;;;;;5005459;28;20042;-50
2021/11/20 07:10:42;;;;;;;38.38;24.38;;;10.50;99.90;;;;;;5010989;28;20091;-50
2021/11/20 07:13:08;;;;;;;34.70;23.50;;;10.50;99.90;;;;;;5009760;28;20054;-51
2021/11/20 07:15:34;;;;;;;37.13;24.50;;;10.60;99.90;;;;;;5009446;28;20038;-49
2021/11/20 07:18:00;;;;;;;36.88;23.45;;;10.50;99.90;;;;;;5011387;28;20409;-51
2021/11/20 07:20:29;;;;;;;37.63;24.50;;;10.50;99.90;;;;;;5007321;28;20036;-52
2021/11/20 07:22:55;;;;;;;40.20;24.70;;;10.50;99.90;;;;;;5007291;28;20398;-50
2021/11/20 07:25:25;;;;;;;37.28;23.02;;;10.50;99.90;;;;;;5008612;28;20458;-49
2021/11/20 07:27:52;;;;;;;41.72;25.85;;;10.50;99.90;;;;;;5007304;28;20050;-50
2021/11/20 07:30:18;;;;;;;38.28;25.65;;;10.50;99.90;;;;;;5006739;28;20544;-49
2021/11/20 07:32:45;;;;;;;36.30;24.67;;;10.50;99.90;;;;;;5009134;28;20042;-50
2021/11/20 07:35:11;;;;;;;37.13;23.20;;;10.50;99.90;;;;;;5003260;28;20498;-50
2021/11/20 07:37:37;;;;;;;35.90;24.27;;;10.50;99.90;;;;;;5011167;28;20064;-49
2021/11/20 07:40:05;;;;;;;35.58;24.10;;;10.60;99.90;;;;;;5004755;28;20033;-50
2021/11/20 07:42:30;;;;;;;40.15;25.58;;;10.60;99.90;;;;;;5010578;28;20030;-52
2021/11/20 07:45:01;;;;;;;36.70;24.50;;;10.50;99.90;;;;;;5002199;28;20302;-51
2021/11/20 07:47:27;;;;;;;36.33;24.10;;;10.60;99.90;;;;;;5001550;28;20037;-51
2021/11/20 07:49:53;;;;;;;33.72;24.20;;;10.60;99.90;;;;;;5007627;28;20040;-53
2021/11/20 07:52:18;;;;;;;37.05;24.58;;;10.60;99.90;;;;;;5019626;22;20109;-49
2021/11/20 07:54:44;;;;;;;36.47;24.08;;;10.60;99.90;;;;;;5003367;28;20445;-49
2021/11/20 07:57:10;;;;;;;36.20;23.45;;;10.60;99.90;;;;;;5005817;28;20145;-49
2021/11/20 07:59:35;;;;;;;37.25;23.33;;;10.60;99.90;;;;;;5007339;28;20513;-54
2021/11/20 08:02:01;;;;;;;37.65;24.25;;;10.60;99.90;;;;;;4995995;28;20041;-51
2021/11/20 08:04:27;;;;;;;34.92;23.42;;;10.60;99.90;;;;;;5002573;28;20042;-49
2021/11/20 08:06:52;;;;;;;35.70;24.10;;;10.60;99.90;;;;;;4995821;28;20030;-50
2021/11/20 08:09:18;;;;;;;34.92;23.38;;;10.60;99.90;;;;;;4999456;28;20034;-50
2021/11/20 08:11:43;;;;;;;33.55;22.50;;;10.60;99.90;;;;;;4990268;28;20118;-51
2021/11/20 08:14:10;;;;;;;35.90;22.80;;;10.60;99.90;;;;;;4995022;28;20085;-49
2021/11/20 08:16:38;;;;;;;34.45;23.23;;;10.60;99.90;;;;;;4998804;28;20038;-49
2021/11/20 08:19:05;;;;;;;37.33;23.58;;;10.60;99.90;;;;;;4994144;28;20088;-50
2021/11/20 08:21:31;;;;;;;35.47;24.67;;;10.60;99.90;;;;;;4996706;28;20034;-52
2021/11/20 08:23:56;;;;;;;32.15;22.88;;;10.60;99.90;;;;;;4996393;28;20501;-49
2021/11/20 08:26:25;;;;;;;34.17;23.50;;;10.60;99.90;;;;;;4990735;28;20049;-49
2021/11/20 08:28:52;;;;;;;36.47;24.95;;;10.60;99.90;;;;;;4988537;28;20617;-49
2021/11/20 08:31:18;;;;;;;35.28;25.08;;;10.60;99.90;;;;;;4994723;28;20030;-49
2021/11/20 08:33:43;;;;;;;37.75;23.98;;;10.60;99.90;;;;;;5000016;28;20049;-49
2021/11/20 08:36:13;;;;;;;35.20;25.52;;;10.60;99.90;;;;;;4992687;28;20042;-49
2021/11/20 08:38:40;;;;;;;36.33;24.58;;;10.60;99.90;;;;;;4999907;28;20034;-50
2021/11/20 08:41:08;;;;;;;34.65;25.10;;;10.60;99.90;;;;;;4996542;28;20050;-49
2021/11/20 08:43:34;;;;;;;32.53;23.60;;;10.60;99.90;;;;;;4999567;28;20046;-50
2021/11/20 08:46:02;;;;;;;34.65;23.52;;;10.60;99.90;;;;;;5001521;28;20113;-49
2021/11/20 08:48:28;;;;;;;36.47;23.60;;;10.60;99.90;;;;;;4977476;28;20481;-49
2021/11/20 08:51:00;;;;;;;33.67;23.50;;;10.60;99.90;;;;;;4994331;28;20289;-52
2021/11/20 08:53:26;;;;;;;34.15;23.95;;;10.60;99.90;;;;;;5000994;28;20097;-50
2021/11/20 08:55:52;;;;;;;32.38;23.45;;;10.70;99.90;;;;;;5000917;28;20084;-50
2021/11/20 08:58:18;;;;;;;33.40;23.73;;;10.60;99.90;;;;;;4991274;28;20105;-49
2021/11/20 09:00:49;;;;;;;33.65;24.20;;;10.60;99.90;;;;;;4992958;28;20576;-50
2021/11/20 09:03:29;;;;;;;34.38;24.23;;;10.60;99.90;;;;;;5003585;28;20034;-50
2021/11/20 09:06:05;;;;;;;32.80;24.88;;;10.70;99.90;;;;;;4987936;28;20045;-50
2021/11/20 09:08:38;;;;;;;37.53;25.33;;;10.70;99.90;;;;;;4995541;28;20041;-54
2021/11/20 09:11:15;;;;;;;33.70;24.33;;;10.60;99.90;;;;;;4993268;28;20042;-50
2021/11/20 09:13:50;;;;;;;35.58;25.05;;;10.70;99.90;;;;;;4989066;28;20049;-51
2021/11/20 09:16:20;;;;;;;31.10;23.73;;;10.70;99.90;;;;;;4978771;28;20042;-53
2021/11/20 09:18:46;;;;;;;33.67;24.75;;;10.70;99.90;;;;;;4988814;28;20046;-53
2021/11/20 09:21:14;;;;;;;31.98;24.20;;;10.70;99.90;;;;;;4991538;28;20117;-52
2021/11/20 09:23:40;;;;;;;32.83;23.95;;;10.70;99.90;;;;;;4995194;28;20042;-53
2021/11/20 09:26:06;;;;;;;32.75;25.30;;;10.70;99.90;;;;;;4993211;28;20042;-53
2021/11/20 09:28:32;;;;;;;35.28;24.63;;;10.70;99.90;;;;;;4991235;28;20117;-54
2021/11/20 09:31:00;;;;;;;32.60;25.08;;;10.70;99.90;;;;;;4997262;28;20030;-53
2021/11/20 09:33:27;;;;;;;36.83;26.48;;;10.70;99.90;;;;;;5002317;28;20030;-53
2021/11/20 09:35:53;;;;;;;33.50;25.77;;;10.70;99.90;;;;;;4995898;28;20533;-53
2021/11/20 09:38:21;;;;;;;32.58;25.90;;;10.70;99.90;;;;;;5003659;28;20034;-55
2021/11/20 09:41:01;;;;;;;32.80;25.30;;;10.70;99.90;;;;;;4999195;28;20038;-53
2021/11/20 09:43:31;;;;;;;35.17;27.60;;;10.70;99.90;;;;;;4994701;28;20132;-53
2021/11/20 09:46:23;;;;;;;33.15;25.85;;;10.80;99.90;;;;;;4992799;28;20042;-51
2021/11/20 09:48:56;;;;;;;35.70;25.80;;;10.80;99.90;;;;;;4994641;28;20104;-49
2021/11/20 09:51:25;;;;;;;33.03;26.60;;;10.80;99.90;;;;;;5000814;28;20572;-52
2021/11/20 09:53:51;;;;;;;37.08;27.13;;;10.80;99.90;;;;;;5000185;28;20077;-51
2021/11/20 09:56:28;;;;;;;35.88;27.83;;;10.80;99.90;;;;;;4997236;28;20587;-53
2021/11/20 09:59:01;;;;;;;38.95;27.90;;;10.80;99.90;;;;;;4990804;28;20030;-53
2021/11/20 10:01:59;;;;;;;39.42;27.65;;;10.80;99.90;;;;;;4994218;28;20093;-54
2021/11/20 10:04:44;;;;;;;39.40;27.75;;;10.80;99.90;;;;;;4990785;28;20080;-52
2021/11/20 10:07:22;;;;;;;38.90;28.25;;;10.80;99.90;;;;;;4988556;28;20085;-52
2021/11/20 10:09:54;;;;;;;36.88;27.98;;;10.80;99.90;;;;;;4984845;28;20037;-49
2021/11/20 10:12:32;;;;;;;39.38;29.02;;;10.80;99.90;;;;;;5001167;28;20034;-49
2021/11/20 10:15:17;;;;;;;38.15;28.83;;;10.80;99.90;;;;;;4998393;28;20117;-49
2021/11/20 10:17:51;;;;;;;38.00;29.15;;;10.80;99.90;;;;;;4993936;28;20040;-51
2021/11/20 10:20:45;;;;;;;39.80;30.00;;;10.80;99.90;;;;;;4994633;28;20042;-51
2021/11/20 10:23:11;;;;;;;39.15;29.15;;;10.80;99.90;;;;;;4993716;28;20049;-51
2021/11/20 10:26:07;;;;;;;41.42;29.58;;;10.80;99.90;;;;;;4990313;28;20042;-49
2021/11/20 10:28:51;;;;;;;40.90;29.02;;;10.80;99.90;;;;;;4973068;28;20046;-52
2021/11/20 10:31:25;;;;;;;41.35;30.00;;;10.80;99.90;;;;;;4999073;28;20501;-52
2021/11/20 10:34:06;;;;;;;40.35;30.00;;;10.90;99.90;;;;;;5003097;28;20045;-49
2021/11/20 10:37:12;;;;;;;43.83;30.38;;;10.80;99.90;;;;;;4998933;28;20050;-53
2021/11/20 10:39:44;;;;;;;43.13;30.65;;;10.80;99.90;;;;;;5001565;28;20410;-50
2021/11/20 10:42:42;;;;;;;42.35;31.15;;;10.80;99.90;;;;;;5006714;28;20038;-49
2021/11/20 10:45:18;;;;;;;44.67;31.60;;;10.90;99.90;;;;;;4988626;28;20053;-49
2021/11/20 10:48:00;;;;;;;43.00;30.15;;;10.90;99.90;;;;;;4992351;28;20133;-52
2021/11/20 10:50:40;;;;;;;43.17;31.27;;;10.90;99.90;;;;;;4997414;28;20033;-52
2021/11/20 10:53:27;;;;;;;45.10;31.58;;;10.90;99.90;;;;;;4996174;28;20397;-49
2021/11/20 10:56:21;;;;;;;45.80;32.53;;;10.90;99.90;;;;;;4996324;28;20049;-49
2021/11/20 10:58:53;;;;;;;45.10;32.67;;;10.90;99.90;;;;;;4996064;28;20085;-50
2021/11/20 11:01:34;;;;;;;47.90;33.58;;;10.90;99.90;;;;;;5000209;28;20030;-50
2021/11/20 11:04:15;;;;;;;48.58;33.70;;;10.90;99.90;;;;;;4992065;28;20120;-50
2021/11/20 11:07:17;;;;;;;47.78;33.72;;;10.90;99.90;;;;;;4993615;28;20077;-52
2021/11/20 11:09:47;;;;;;;52.78;34.80;;;10.80;99.90;;;;;;5002271;28;20117;-50
2021/11/20 11:12:39;;;;;;;51.67;34.47;;;10.90;99.90;;;;;;4999055;28;20040;-50
2021/11/20 11:15:08;;;;;;;;;;;10.90;99.90;;;;;;4993247;28;20069;-50
2021/11/20 11:17:58;;;;;;;57.63;34.95;;;10.80;99.90;;;;;;4993925;28;20020;-49
2021/11/20 11:21:02;;;;;;;55.85;35.33;;;10.80;99.90;;;;;;5002895;28;20026;-53
2021/11/20 11:23:49;;;;;;;54.05;35.03;;;10.80;99.90;;;;;;4988078;28;20034;-49
2021/11/20 11:26:16;;;;;;;58.08;36.80;;;10.70;99.90;;;;;;4993800;28;20030;-49
2021/11/20 11:28:51;;;;;;;59.30;36.13;;;10.70;99.90;;;;;;4992711;28;20578;-49
2021/11/20 11:31:33;;;;;;;56.05;36.25;;;10.70;99.90;;;;;;4994103;28;20490;-51
2021/11/20 11:34:16;;;;;;;55.22;35.10;;;10.70;99.90;;;;;;4973443;28;20407;-50
2021/11/20 11:37:34;;;;;;;60.55;34.33;;;10.70;99.90;;;;;;4973818;28;20049;-50
2021/11/20 11:40:31;;;;;;;61.05;36.45;;;10.70;99.90;;;;;;4975058;28;20440;-49
2021/11/20 11:43:15;;;;;;;54.10;34.22;;;10.70;99.90;;;;;;5000169;28;20026;-51
2021/11/20 11:45:47;;;;;;;54.80;33.72;;;10.70;99.90;;;;;;4994041;28;20502;-50
2021/11/20 11:48:28;;;;;;;56.42;34.28;;;10.70;99.90;;;;;;5001457;28;20045;-49
2021/11/20 11:51:02;;;;;;;60.20;33.88;;;10.70;99.90;;;;;;4995083;28;20119;-51
2021/11/20 11:53:58;;;;;;;60.60;35.00;;;10.70;99.90;;;;;;4997011;28;20517;-50
2021/11/20 11:56:37;;;;;;;56.38;34.75;;;10.70;99.90;;;;;;4996744;28;20049;-49
2021/11/20 11:59:35;;;;;;;57.70;33.47;;;10.70;99.90;;;;;;4992642;28;20038;-49
2021/11/20 12:02:03;;;;;;;60.53;35.90;;;10.70;99.90;;;;;;4990047;28;20038;-53
2021/11/20 12:04:29;;;;;;;61.17;36.83;;;10.70;99.90;;;;;;4992513;28;20030;-49
2021/11/20 12:07:34;;;;;;;63.45;36.15;;;10.70;99.90;;;;;;4975126;28;20444;-49
2021/11/20 12:10:22;;;;;;;63.58;36.58;;;10.70;99.90;;;;;;4990236;28;20042;-49
2021/11/20 12:13:10;;;;;;;61.28;35.88;;;10.60;99.90;;;;;;4991041;28;20046;-49
2021/11/20 12:16:18;;;;;;;67.32;37.35;;;10.70;99.90;;;;;;4993165;28;20038;-49
2021/11/20 12:19:13;;;;;;;70.97;39.13;;;10.60;99.90;;;;;;5001020;28;20435;-49
2021/11/20 12:22:45;;;;;;;69.13;38.03;;;10.60;99.90;;;;;;4971963;28;20453;-52
2021/11/20 12:25:19;;;;;;;74.00;39.90;;;10.60;99.90;;;;;;4939548;29;20500;-49
2021/11/20 12:27:48;;;;;;;62.95;36.65;;;10.60;99.90;;;;;;4988643;28;20054;-49
2021/11/20 12:30:27;;;;;;;68.65;38.70;;;10.60;99.90;;;;;;5002018;28;20037;-49
2021/11/20 12:33:30;;;;;;;69.53;38.97;;;10.60;99.90;;;;;;4993259;28;20042;-49
2021/11/20 12:36:14;;;;;;;76.57;39.60;;;10.60;99.90;;;;;;4998101;28;20042;-49
2021/11/20 12:39:07;;;;;;;78.45;40.75;;;10.60;99.90;;;;;;4997931;28;20056;-49
2021/11/20 12:42:01;;;;;;;69.95;38.72;;;10.60;99.90;;;;;;4995736;28;20097;-49
2021/11/20 12:44:45;;;;;;;68.10;38.20;;;10.60;99.90;;;;;;4996959;28;20441;-49
2021/11/20 12:47:54;;;;;;;74.90;39.60;;;10.60;99.90;;;;;;4993342;28;20038;-49
2021/11/20 12:50:47;;;;;;;85.18;40.90;;;10.60;99.90;;;;;;4993389;28;20456;-49
2021/11/20 12:53:51;;;;;;;82.63;40.50;;;10.60;99.90;;;;;;4981116;28;20030;-51
2021/11/20 12:56:17;;;;;;;88.22;40.65;;;10.60;99.90;;;;;;4915375;29;20318;-49
2021/11/20 12:58:44;;;;;;;80.50;40.42;;;10.60;99.90;;;;;;4958525;28;20443;-49
2021/11/20 13:01:16;;;;;;;76.93;40.13;;;10.60;99.90;;;;;;4988286;28;20030;-49